sensor_id;sensor_type;location;lat;lon;timestamp;temperature;humidity
10270;DHT22;70826;50.930;5.334;2024-01-27T00:02:05;18.90;63.90
10270;DHT22;70826;50.930;5.334;2024-01-27T00:04:30;19.00;63.90
10270;DHT22;70826;50.930;5.334;2024-01-27T00:06:56;19.00;63.90
10270;DHT22;70826;50.930;5.334;2024-01-27T00:09:22;18.90;63.80
10270;DHT22;70826;50.930;5.334;2024-01-27T00:11:47;19.00;64.50
10270;DHT22;70826;50.930;5.334;2024-01-27T00:14:13;18.90;63.90
10270;DHT22;70826;50.930;5.334;2024-01-27T00:16:39;18.90;63.90
10270;DHT22;70826;50.930;5.334;2024-01-27T00:19:04;18.90;63.90
10270;DHT22;70826;50.930;5.334;2024-01-27T00:21:30;18.90;63.80
10270;DHT22;70826;50.930;5.334;2024-01-27T00:23:58;18.90;63.80
10270;DHT22;70826;50.930;5.334;2024-01-27T00:26:26;18.90;63.80
10270;DHT22;70826;50.930;5.334;2024-01-27T00:28:52;18.90;63.80
10270;DHT22;70826;50.930;5.334;2024-01-27T00:31:21;18.90;63.80
10270;DHT22;70826;50.930;5.334;2024-01-27T00:33:46;18.90;63.80
10270;DHT22;70826;50.930;5.334;2024-01-27T00:36:15;19.00;63.80
10270;DHT22;70826;50.930;5.334;2024-01-27T00:38:40;18.90;63.70
10270;DHT22;70826;50.930;5.334;2024-01-27T00:41:08;18.90;63.70
10270;DHT22;70826;50.930;5.334;2024-01-27T00:43:40;18.90;63.70
10270;DHT22;70826;50.930;5.334;2024-01-27T00:46:05;18.90;63.70
10270;DHT22;70826;50.930;5.334;2024-01-27T00:48:36;18.90;63.70
10270;DHT22;70826;50.930;5.334;2024-01-27T00:51:01;18.90;63.60
10270;DHT22;70826;50.930;5.334;2024-01-27T00:53:27;18.90;63.70
10270;DHT22;70826;50.930;5.334;2024-01-27T00:55:55;18.90;63.60
10270;DHT22;70826;50.930;5.334;2024-01-27T00:58:20;18.90;63.70
10270;DHT22;70826;50.930;5.334;2024-01-27T01:00:46;18.90;63.60
10270;DHT22;70826;50.930;5.334;2024-01-27T01:03:16;18.90;63.60
10270;DHT22;70826;50.930;5.334;2024-01-27T01:05:44;18.90;63.60
10270;DHT22;70826;50.930;5.334;2024-01-27T01:08:12;18.90;63.60
10270;DHT22;70826;50.930;5.334;2024-01-27T01:10:40;18.90;63.60
10270;DHT22;70826;50.930;5.334;2024-01-27T01:13:08;18.90;63.50
10270;DHT22;70826;50.930;5.334;2024-01-27T01:15:38;18.90;63.50
10270;DHT22;70826;50.930;5.334;2024-01-27T01:18:05;18.90;63.50
10270;DHT22;70826;50.930;5.334;2024-01-27T01:20:32;18.90;63.50
10270;DHT22;70826;50.930;5.334;2024-01-27T01:23:05;18.90;63.50
10270;DHT22;70826;50.930;5.334;2024-01-27T01:25:31;18.90;63.50
10270;DHT22;70826;50.930;5.334;2024-01-27T01:27:57;18.90;63.50
10270;DHT22;70826;50.930;5.334;2024-01-27T01:30:22;18.90;63.40
10270;DHT22;70826;50.930;5.334;2024-01-27T01:32:50;18.90;63.50
10270;DHT22;70826;50.930;5.334;2024-01-27T01:35:18;18.90;63.70
10270;DHT22;70826;50.930;5.334;2024-01-27T01:37:46;18.90;63.40
10270;DHT22;70826;50.930;5.334;2024-01-27T01:40:16;18.90;63.40
10270;DHT22;70826;50.930;5.334;2024-01-27T01:42:52;18.90;63.40
10270;DHT22;70826;50.930;5.334;2024-01-27T01:45:17;18.90;63.30
10270;DHT22;70826;50.930;5.334;2024-01-27T01:47:44;18.90;63.30
10270;DHT22;70826;50.930;5.334;2024-01-27T01:50:14;18.90;63.30
10270;DHT22;70826;50.930;5.334;2024-01-27T01:52:43;18.90;63.30
10270;DHT22;70826;50.930;5.334;2024-01-27T01:55:11;18.90;63.30
10270;DHT22;70826;50.930;5.334;2024-01-27T01:57:39;18.90;63.20
10270;DHT22;70826;50.930;5.334;2024-01-27T02:00:08;18.90;63.20
10270;DHT22;70826;50.930;5.334;2024-01-27T02:02:36;18.90;63.20
10270;DHT22;70826;50.930;5.334;2024-01-27T02:05:08;18.90;63.20
10270;DHT22;70826;50.930;5.334;2024-01-27T02:07:36;18.90;63.20
10270;DHT22;70826;50.930;5.334;2024-01-27T02:10:02;18.90;63.20
10270;DHT22;70826;50.930;5.334;2024-01-27T02:12:28;18.90;63.20
10270;DHT22;70826;50.930;5.334;2024-01-27T02:14:56;18.90;63.20
10270;DHT22;70826;50.930;5.334;2024-01-27T02:17:24;18.90;63.10
10270;DHT22;70826;50.930;5.334;2024-01-27T02:19:53;18.90;63.20
10270;DHT22;70826;50.930;5.334;2024-01-27T02:22:23;18.90;63.20
10270;DHT22;70826;50.930;5.334;2024-01-27T02:24:51;18.90;63.10
10270;DHT22;70826;50.930;5.334;2024-01-27T02:27:19;18.90;63.10
10270;DHT22;70826;50.930;5.334;2024-01-27T02:29:47;18.90;63.10
10270;DHT22;70826;50.930;5.334;2024-01-27T02:32:12;18.90;63.10
10270;DHT22;70826;50.930;5.334;2024-01-27T02:34:38;18.90;63.10
10270;DHT22;70826;50.930;5.334;2024-01-27T02:37:03;18.90;63.00
10270;DHT22;70826;50.930;5.334;2024-01-27T02:39:33;18.90;63.10
10270;DHT22;70826;50.930;5.334;2024-01-27T02:42:04;18.90;63.00
10270;DHT22;70826;50.930;5.334;2024-01-27T02:44:34;18.90;63.00
10270;DHT22;70826;50.930;5.334;2024-01-27T02:47:00;18.90;63.00
10270;DHT22;70826;50.930;5.334;2024-01-27T02:49:30;18.90;63.00
10270;DHT22;70826;50.930;5.334;2024-01-27T02:52:01;18.90;63.00
10270;DHT22;70826;50.930;5.334;2024-01-27T02:54:29;18.90;63.00
10270;DHT22;70826;50.930;5.334;2024-01-27T02:56:54;18.90;63.00
10270;DHT22;70826;50.930;5.334;2024-01-27T02:59:20;18.90;63.00
10270;DHT22;70826;50.930;5.334;2024-01-27T03:01:48;18.90;62.90
10270;DHT22;70826;50.930;5.334;2024-01-27T03:04:16;18.90;62.90
10270;DHT22;70826;50.930;5.334;2024-01-27T03:06:44;18.90;62.90
10270;DHT22;70826;50.930;5.334;2024-01-27T03:09:10;18.90;62.90
10270;DHT22;70826;50.930;5.334;2024-01-27T03:11:39;18.90;62.90
10270;DHT22;70826;50.930;5.334;2024-01-27T03:14:04;18.90;62.80
10270;DHT22;70826;50.930;5.334;2024-01-27T03:16:35;18.90;62.80
10270;DHT22;70826;50.930;5.334;2024-01-27T03:19:01;18.90;62.80
10270;DHT22;70826;50.930;5.334;2024-01-27T03:21:27;18.90;62.80
10270;DHT22;70826;50.930;5.334;2024-01-27T03:23:53;18.90;62.80
10270;DHT22;70826;50.930;5.334;2024-01-27T03:26:23;18.90;62.80
10270;DHT22;70826;50.930;5.334;2024-01-27T03:28:51;18.90;62.80
10270;DHT22;70826;50.930;5.334;2024-01-27T03:31:19;18.90;62.80
10270;DHT22;70826;50.930;5.334;2024-01-27T03:33:47;18.90;62.70
10270;DHT22;70826;50.930;5.334;2024-01-27T03:36:15;18.90;62.70
10270;DHT22;70826;50.930;5.334;2024-01-27T03:38:43;18.90;62.70
10270;DHT22;70826;50.930;5.334;2024-01-27T03:41:08;18.90;62.70
10270;DHT22;70826;50.930;5.334;2024-01-27T03:43:34;18.90;62.70
10270;DHT22;70826;50.930;5.334;2024-01-27T03:46:02;18.90;62.70
10270;DHT22;70826;50.930;5.334;2024-01-27T03:48:28;18.90;62.70
10270;DHT22;70826;50.930;5.334;2024-01-27T03:50:56;18.90;62.70
10270;DHT22;70826;50.930;5.334;2024-01-27T03:53:24;18.90;62.70
10270;DHT22;70826;50.930;5.334;2024-01-27T03:55:55;18.90;62.60
10270;DHT22;70826;50.930;5.334;2024-01-27T03:58:24;18.90;62.70
10270;DHT22;70826;50.930;5.334;2024-01-27T04:00:52;18.90;62.60
10270;DHT22;70826;50.930;5.334;2024-01-27T04:03:22;18.80;62.50
10270;DHT22;70826;50.930;5.334;2024-01-27T04:05:50;18.90;62.60
10270;DHT22;70826;50.930;5.334;2024-01-27T04:08:16;18.90;62.60
10270;DHT22;70826;50.930;5.334;2024-01-27T04:10:46;18.90;62.60
10270;DHT22;70826;50.930;5.334;2024-01-27T04:13:15;18.80;62.50
10270;DHT22;70826;50.930;5.334;2024-01-27T04:15:40;18.90;62.60
10270;DHT22;70826;50.930;5.334;2024-01-27T04:18:08;18.90;62.60
10270;DHT22;70826;50.930;5.334;2024-01-27T04:20:39;18.90;62.50
10270;DHT22;70826;50.930;5.334;2024-01-27T04:23:07;18.90;62.50
10270;DHT22;70826;50.930;5.334;2024-01-27T04:25:35;18.90;62.50
10270;DHT22;70826;50.930;5.334;2024-01-27T04:28:06;18.90;62.60
10270;DHT22;70826;50.930;5.334;2024-01-27T04:30:37;18.90;62.50
10270;DHT22;70826;50.930;5.334;2024-01-27T04:33:02;18.90;62.50
10270;DHT22;70826;50.930;5.334;2024-01-27T04:35:34;18.90;62.50
10270;DHT22;70826;50.930;5.334;2024-01-27T04:38:00;18.90;62.50
10270;DHT22;70826;50.930;5.334;2024-01-27T04:40:29;18.80;62.40
10270;DHT22;70826;50.930;5.334;2024-01-27T04:43:03;18.90;62.50
10270;DHT22;70826;50.930;5.334;2024-01-27T04:45:31;18.90;62.50
10270;DHT22;70826;50.930;5.334;2024-01-27T04:48:01;18.90;62.50
10270;DHT22;70826;50.930;5.334;2024-01-27T04:50:33;18.90;62.50
10270;DHT22;70826;50.930;5.334;2024-01-27T04:53:04;18.90;62.40
10270;DHT22;70826;50.930;5.334;2024-01-27T04:55:30;18.90;62.40
10270;DHT22;70826;50.930;5.334;2024-01-27T04:57:58;18.90;62.40
10270;DHT22;70826;50.930;5.334;2024-01-27T05:00:26;18.80;62.30
10270;DHT22;70826;50.930;5.334;2024-01-27T05:02:56;18.90;62.40
10270;DHT22;70826;50.930;5.334;2024-01-27T05:05:28;18.80;62.30
10270;DHT22;70826;50.930;5.334;2024-01-27T05:07:56;18.80;62.30
10270;DHT22;70826;50.930;5.334;2024-01-27T05:10:27;18.80;62.30
10270;DHT22;70826;50.930;5.334;2024-01-27T05:12:55;18.80;62.30
10270;DHT22;70826;50.930;5.334;2024-01-27T05:15:21;18.90;62.40
10270;DHT22;70826;50.930;5.334;2024-01-27T05:17:49;18.90;62.30
10270;DHT22;70826;50.930;5.334;2024-01-27T05:20:19;18.80;62.30
10270;DHT22;70826;50.930;5.334;2024-01-27T05:22:45;18.80;62.30
10270;DHT22;70826;50.930;5.334;2024-01-27T05:25:11;18.90;62.30
10270;DHT22;70826;50.930;5.334;2024-01-27T05:27:37;18.90;62.30
10270;DHT22;70826;50.930;5.334;2024-01-27T05:30:07;18.80;62.20
10270;DHT22;70826;50.930;5.334;2024-01-27T05:32:37;18.80;62.20
10270;DHT22;70826;50.930;5.334;2024-01-27T05:35:06;18.90;62.30
10270;DHT22;70826;50.930;5.334;2024-01-27T05:37:36;18.90;62.20
10270;DHT22;70826;50.930;5.334;2024-01-27T05:40:02;18.90;62.20
10270;DHT22;70826;50.930;5.334;2024-01-27T05:42:28;18.80;62.20
10270;DHT22;70826;50.930;5.334;2024-01-27T05:44:58;18.90;62.20
10270;DHT22;70826;50.930;5.334;2024-01-27T05:47:27;18.80;62.20
10270;DHT22;70826;50.930;5.334;2024-01-27T05:49:52;18.80;62.20
10270;DHT22;70826;50.930;5.334;2024-01-27T05:52:23;18.80;62.10
10270;DHT22;70826;50.930;5.334;2024-01-27T05:54:53;18.80;62.10
10270;DHT22;70826;50.930;5.334;2024-01-27T05:57:19;18.80;62.10
10270;DHT22;70826;50.930;5.334;2024-01-27T05:59:45;18.80;62.10
10270;DHT22;70826;50.930;5.334;2024-01-27T06:02:10;18.80;62.10
10270;DHT22;70826;50.930;5.334;2024-01-27T06:04:36;18.80;62.10
10270;DHT22;70826;50.930;5.334;2024-01-27T06:07:06;18.90;62.10
10270;DHT22;70826;50.930;5.334;2024-01-27T06:09:36;18.80;62.00
10270;DHT22;70826;50.930;5.334;2024-01-27T06:12:04;18.80;62.00
10270;DHT22;70826;50.930;5.334;2024-01-27T06:14:30;18.80;62.00
10270;DHT22;70826;50.930;5.334;2024-01-27T06:16:55;18.80;62.00
10270;DHT22;70826;50.930;5.334;2024-01-27T06:19:26;18.80;62.10
10270;DHT22;70826;50.930;5.334;2024-01-27T06:21:54;18.80;62.00
10270;DHT22;70826;50.930;5.334;2024-01-27T06:24:21;18.80;62.00
10270;DHT22;70826;50.930;5.334;2024-01-27T06:26:47;18.80;62.00
10270;DHT22;70826;50.930;5.334;2024-01-27T06:29:12;18.80;62.00
10270;DHT22;70826;50.930;5.334;2024-01-27T06:31:41;18.80;62.00
10270;DHT22;70826;50.930;5.334;2024-01-27T06:34:09;18.80;61.90
10270;DHT22;70826;50.930;5.334;2024-01-27T06:36:35;18.80;61.90
10270;DHT22;70826;50.930;5.334;2024-01-27T06:39:00;18.80;62.00
10270;DHT22;70826;50.930;5.334;2024-01-27T06:41:28;18.80;62.00
10270;DHT22;70826;50.930;5.334;2024-01-27T06:43:54;18.90;62.60
10270;DHT22;70826;50.930;5.334;2024-01-27T06:46:19;18.90;62.00
10270;DHT22;70826;50.930;5.334;2024-01-27T06:48:47;18.80;62.60
10270;DHT22;70826;50.930;5.334;2024-01-27T06:51:16;18.90;62.00
10270;DHT22;70826;50.930;5.334;2024-01-27T06:53:43;18.80;61.90
10270;DHT22;70826;50.930;5.334;2024-01-27T06:56:13;18.80;61.90
10270;DHT22;70826;50.930;5.334;2024-01-27T06:58:39;18.90;61.90
10270;DHT22;70826;50.930;5.334;2024-01-27T07:01:06;18.90;61.90
10270;DHT22;70826;50.930;5.334;2024-01-27T07:03:37;18.80;61.80
10270;DHT22;70826;50.930;5.334;2024-01-27T07:06:05;18.80;61.80
10270;DHT22;70826;50.930;5.334;2024-01-27T07:08:33;18.90;61.90
10270;DHT22;70826;50.930;5.334;2024-01-27T07:11:01;18.80;61.80
10270;DHT22;70826;50.930;5.334;2024-01-27T07:13:29;18.80;61.80
10270;DHT22;70826;50.930;5.334;2024-01-27T07:15:56;18.80;61.90
10270;DHT22;70826;50.930;5.334;2024-01-27T07:18:23;18.80;61.80
10270;DHT22;70826;50.930;5.334;2024-01-27T07:20:51;18.80;61.80
10270;DHT22;70826;50.930;5.334;2024-01-27T07:23:17;18.90;61.90
10270;DHT22;70826;50.930;5.334;2024-01-27T07:25:52;18.80;61.80
10270;DHT22;70826;50.930;5.334;2024-01-27T07:28:18;18.90;61.90
10270;DHT22;70826;50.930;5.334;2024-01-27T07:30:50;18.80;61.90
10270;DHT22;70826;50.930;5.334;2024-01-27T07:33:18;18.80;61.90
10270;DHT22;70826;50.930;5.334;2024-01-27T07:35:44;18.80;61.80
10270;DHT22;70826;50.930;5.334;2024-01-27T07:38:14;18.80;61.90
10270;DHT22;70826;50.930;5.334;2024-01-27T07:40:40;18.80;61.90
10270;DHT22;70826;50.930;5.334;2024-01-27T07:43:10;18.80;61.80
10270;DHT22;70826;50.930;5.334;2024-01-27T07:45:38;18.90;61.80
10270;DHT22;70826;50.930;5.334;2024-01-27T07:48:06;18.80;61.80
10270;DHT22;70826;50.930;5.334;2024-01-27T07:50:33;18.90;61.80
10270;DHT22;70826;50.930;5.334;2024-01-27T07:53:01;18.80;61.70
10270;DHT22;70826;50.930;5.334;2024-01-27T07:55:29;18.80;61.80
10270;DHT22;70826;50.930;5.334;2024-01-27T07:57:59;18.80;61.80
10270;DHT22;70826;50.930;5.334;2024-01-27T08:00:24;18.80;61.80
10270;DHT22;70826;50.930;5.334;2024-01-27T08:02:53;18.80;61.80
10270;DHT22;70826;50.930;5.334;2024-01-27T08:05:18;18.90;61.90
10270;DHT22;70826;50.930;5.334;2024-01-27T08:07:51;18.80;61.80
10270;DHT22;70826;50.930;5.334;2024-01-27T08:10:17;18.80;61.80
10270;DHT22;70826;50.930;5.334;2024-01-27T08:12:47;18.90;61.90
10270;DHT22;70826;50.930;5.334;2024-01-27T08:15:18;18.80;61.80
10270;DHT22;70826;50.930;5.334;2024-01-27T08:17:46;18.80;61.80
10270;DHT22;70826;50.930;5.334;2024-01-27T08:20:12;18.90;62.00
10270;DHT22;70826;50.930;5.334;2024-01-27T08:22:37;18.80;61.70
10270;DHT22;70826;50.930;5.334;2024-01-27T08:25:03;18.80;61.70
10270;DHT22;70826;50.930;5.334;2024-01-27T08:27:31;18.80;61.60
10270;DHT22;70826;50.930;5.334;2024-01-27T08:29:59;18.80;61.60
10270;DHT22;70826;50.930;5.334;2024-01-27T08:32:29;18.90;61.70
10270;DHT22;70826;50.930;5.334;2024-01-27T08:34:55;18.90;61.60
10270;DHT22;70826;50.930;5.334;2024-01-27T08:37:23;18.90;61.60
10270;DHT22;70826;50.930;5.334;2024-01-27T08:39:51;18.90;61.60
10270;DHT22;70826;50.930;5.334;2024-01-27T08:42:22;18.90;61.60
10270;DHT22;70826;50.930;5.334;2024-01-27T08:44:48;18.90;61.60
10270;DHT22;70826;50.930;5.334;2024-01-27T08:47:16;18.90;61.60
10270;DHT22;70826;50.930;5.334;2024-01-27T08:49:44;18.90;61.50
10270;DHT22;70826;50.930;5.334;2024-01-27T08:52:17;18.90;61.50
10270;DHT22;70826;50.930;5.334;2024-01-27T08:54:45;18.90;61.50
10270;DHT22;70826;50.930;5.334;2024-01-27T08:57:10;19.00;61.50
10270;DHT22;70826;50.930;5.334;2024-01-27T08:59:38;19.00;61.60
10270;DHT22;70826;50.930;5.334;2024-01-27T09:02:04;18.90;61.50
10270;DHT22;70826;50.930;5.334;2024-01-27T09:04:30;19.00;61.60
10270;DHT22;70826;50.930;5.334;2024-01-27T09:06:58;19.00;61.50
10270;DHT22;70826;50.930;5.334;2024-01-27T09:09:26;19.00;61.50
10270;DHT22;70826;50.930;5.334;2024-01-27T09:11:54;19.00;61.40
10270;DHT22;70826;50.930;5.334;2024-01-27T09:14:22;19.00;61.40
10270;DHT22;70826;50.930;5.334;2024-01-27T09:16:50;19.00;61.40
10270;DHT22;70826;50.930;5.334;2024-01-27T09:19:22;19.00;61.40
10270;DHT22;70826;50.930;5.334;2024-01-27T09:21:50;19.00;61.40
10270;DHT22;70826;50.930;5.334;2024-01-27T09:24:19;19.00;61.40
10270;DHT22;70826;50.930;5.334;2024-01-27T09:26:47;19.00;61.40
10270;DHT22;70826;50.930;5.334;2024-01-27T09:29:15;19.00;61.40
10270;DHT22;70826;50.930;5.334;2024-01-27T09:31:43;19.00;61.40
10270;DHT22;70826;50.930;5.334;2024-01-27T09:34:14;19.00;61.40
10270;DHT22;70826;50.930;5.334;2024-01-27T09:36:42;19.00;61.40
10270;DHT22;70826;50.930;5.334;2024-01-27T09:39:08;19.00;61.30
10270;DHT22;70826;50.930;5.334;2024-01-27T09:41:36;19.00;61.40
10270;DHT22;70826;50.930;5.334;2024-01-27T09:44:04;19.00;61.30
10270;DHT22;70826;50.930;5.334;2024-01-27T09:46:37;19.00;61.40
10270;DHT22;70826;50.930;5.334;2024-01-27T09:49:04;19.00;61.30
10270;DHT22;70826;50.930;5.334;2024-01-27T09:51:29;19.00;61.30
10270;DHT22;70826;50.930;5.334;2024-01-27T09:53:59;19.00;61.30
10270;DHT22;70826;50.930;5.334;2024-01-27T09:56:27;19.00;61.30
10270;DHT22;70826;50.930;5.334;2024-01-27T09:58:58;19.00;61.30
10270;DHT22;70826;50.930;5.334;2024-01-27T10:01:27;19.00;61.30
10270;DHT22;70826;50.930;5.334;2024-01-27T10:04:00;19.00;61.30
10270;DHT22;70826;50.930;5.334;2024-01-27T10:06:30;19.00;61.30
10270;DHT22;70826;50.930;5.334;2024-01-27T10:08:59;19.00;61.30
10270;DHT22;70826;50.930;5.334;2024-01-27T10:11:25;19.00;61.30
10270;DHT22;70826;50.930;5.334;2024-01-27T10:13:56;19.00;61.30
10270;DHT22;70826;50.930;5.334;2024-01-27T10:16:22;19.00;61.30
10270;DHT22;70826;50.930;5.334;2024-01-27T10:18:47;19.00;61.30
10270;DHT22;70826;50.930;5.334;2024-01-27T10:21:17;19.00;61.50
10270;DHT22;70826;50.930;5.334;2024-01-27T10:23:43;19.00;61.50
10270;DHT22;70826;50.930;5.334;2024-01-27T10:26:10;19.00;61.60
10270;DHT22;70826;50.930;5.334;2024-01-27T10:28:35;19.00;61.60
10270;DHT22;70826;50.930;5.334;2024-01-27T10:31:11;19.00;61.70
10270;DHT22;70826;50.930;5.334;2024-01-27T10:33:38;19.00;61.80
10270;DHT22;70826;50.930;5.334;2024-01-27T10:36:04;19.00;61.70
10270;DHT22;70826;50.930;5.334;2024-01-27T10:38:37;19.00;61.70
10270;DHT22;70826;50.930;5.334;2024-01-27T10:41:08;18.90;61.80
10270;DHT22;70826;50.930;5.334;2024-01-27T10:43:39;18.90;61.70
10270;DHT22;70826;50.930;5.334;2024-01-27T10:46:07;18.90;61.80
10270;DHT22;70826;50.930;5.334;2024-01-27T10:48:36;18.90;61.80
10270;DHT22;70826;50.930;5.334;2024-01-27T10:51:09;18.90;61.80
10270;DHT22;70826;50.930;5.334;2024-01-27T10:53:36;18.90;61.90
10270;DHT22;70826;50.930;5.334;2024-01-27T10:56:06;19.00;61.90
10270;DHT22;70826;50.930;5.334;2024-01-27T10:58:37;19.00;61.90
10270;DHT22;70826;50.930;5.334;2024-01-27T11:01:11;19.00;61.90
10270;DHT22;70826;50.930;5.334;2024-01-27T11:03:41;19.00;61.80
10270;DHT22;70826;50.930;5.334;2024-01-27T11:06:11;19.00;61.80
10270;DHT22;70826;50.930;5.334;2024-01-27T11:08:40;19.00;61.80
10270;DHT22;70826;50.930;5.334;2024-01-27T11:11:11;19.00;61.80
10270;DHT22;70826;50.930;5.334;2024-01-27T11:13:37;19.00;61.80
10270;DHT22;70826;50.930;5.334;2024-01-27T11:16:04;19.00;61.80
10270;DHT22;70826;50.930;5.334;2024-01-27T11:18:30;19.00;61.80
10270;DHT22;70826;50.930;5.334;2024-01-27T11:20:58;18.90;62.80
10270;DHT22;70826;50.930;5.334;2024-01-27T11:23:34;18.80;62.60
10270;DHT22;70826;50.930;5.334;2024-01-27T11:26:09;18.80;63.00
10270;DHT22;70826;50.930;5.334;2024-01-27T11:28:36;18.90;63.40
10270;DHT22;70826;50.930;5.334;2024-01-27T11:31:08;19.00;63.70
10270;DHT22;70826;50.930;5.334;2024-01-27T11:33:44;19.10;64.00
10270;DHT22;70826;50.930;5.334;2024-01-27T11:36:21;19.10;64.20
10270;DHT22;70826;50.930;5.334;2024-01-27T11:38:51;19.20;64.40
10270;DHT22;70826;50.930;5.334;2024-01-27T11:41:39;19.30;64.40
10270;DHT22;70826;50.930;5.334;2024-01-27T11:44:12;19.40;64.50
10270;DHT22;70826;50.930;5.334;2024-01-27T11:46:43;19.40;64.60
10270;DHT22;70826;50.930;5.334;2024-01-27T11:49:17;19.50;64.60
10270;DHT22;70826;50.930;5.334;2024-01-27T11:51:48;19.60;64.70
10270;DHT22;70826;50.930;5.334;2024-01-27T11:54:14;19.70;64.70
10270;DHT22;70826;50.930;5.334;2024-01-27T11:56:39;19.80;64.70
10270;DHT22;70826;50.930;5.334;2024-01-27T11:59:10;19.80;64.60
10270;DHT22;70826;50.930;5.334;2024-01-27T12:01:36;19.90;64.60
10270;DHT22;70826;50.930;5.334;2024-01-27T12:04:03;20.00;64.60
10270;DHT22;70826;50.930;5.334;2024-01-27T12:06:29;20.10;64.70
10270;DHT22;70826;50.930;5.334;2024-01-27T12:08:56;20.10;64.70
10270;DHT22;70826;50.930;5.334;2024-01-27T12:11:29;20.20;64.70
10270;DHT22;70826;50.930;5.334;2024-01-27T12:14:02;20.20;64.70
10270;DHT22;70826;50.930;5.334;2024-01-27T12:16:33;20.30;64.80
10270;DHT22;70826;50.930;5.334;2024-01-27T12:19:01;20.40;64.70
10270;DHT22;70826;50.930;5.334;2024-01-27T12:21:27;20.50;64.60
10270;DHT22;70826;50.930;5.334;2024-01-27T12:23:58;20.70;64.60
10270;DHT22;70826;50.930;5.334;2024-01-27T12:26:31;20.70;64.40
10270;DHT22;70826;50.930;5.334;2024-01-27T12:28:57;20.80;64.30
10270;DHT22;70826;50.930;5.334;2024-01-27T12:31:24;20.90;64.30
10270;DHT22;70826;50.930;5.334;2024-01-27T12:36:19;21.00;64.10
10270;DHT22;70826;50.930;5.334;2024-01-27T12:38:59;21.00;64.00
10270;DHT22;70826;50.930;5.334;2024-01-27T12:41:28;21.10;63.70
10270;DHT22;70826;50.930;5.334;2024-01-27T12:43:56;21.20;63.80
10270;DHT22;70826;50.930;5.334;2024-01-27T12:46:29;21.30;63.70
10270;DHT22;70826;50.930;5.334;2024-01-27T12:48:57;21.30;63.60
10270;DHT22;70826;50.930;5.334;2024-01-27T12:51:27;21.30;63.50
10270;DHT22;70826;50.930;5.334;2024-01-27T12:53:55;21.30;63.40
10270;DHT22;70826;50.930;5.334;2024-01-27T12:56:21;21.30;63.30
10270;DHT22;70826;50.930;5.334;2024-01-27T12:58:47;21.40;63.20
10270;DHT22;70826;50.930;5.334;2024-01-27T13:01:15;21.50;63.10
10270;DHT22;70826;50.930;5.334;2024-01-27T13:03:41;21.50;62.90
10270;DHT22;70826;50.930;5.334;2024-01-27T13:06:09;21.50;62.90
10270;DHT22;70826;50.930;5.334;2024-01-27T13:08:34;21.40;62.90
10270;DHT22;70826;50.930;5.334;2024-01-27T13:11:02;21.40;62.90
10270;DHT22;70826;50.930;5.334;2024-01-27T13:13:30;21.30;62.90
10270;DHT22;70826;50.930;5.334;2024-01-27T13:15:58;21.30;62.90
10270;DHT22;70826;50.930;5.334;2024-01-27T13:18:26;21.30;62.80
10270;DHT22;70826;50.930;5.334;2024-01-27T13:20:54;21.20;62.80
10270;DHT22;70826;50.930;5.334;2024-01-27T13:23:20;21.20;62.80
10270;DHT22;70826;50.930;5.334;2024-01-27T13:25:52;21.20;62.80
10270;DHT22;70826;50.930;5.334;2024-01-27T13:28:22;21.10;62.80
10270;DHT22;70826;50.930;5.334;2024-01-27T13:30:50;21.10;62.80
10270;DHT22;70826;50.930;5.334;2024-01-27T13:33:18;21.20;62.70
10270;DHT22;70826;50.930;5.334;2024-01-27T13:35:44;21.20;62.60
10270;DHT22;70826;50.930;5.334;2024-01-27T13:38:13;21.20;62.40
10270;DHT22;70826;50.930;5.334;2024-01-27T13:40:45;21.20;62.50
10270;DHT22;70826;50.930;5.334;2024-01-27T13:43:13;21.20;62.60
10270;DHT22;70826;50.930;5.334;2024-01-27T13:45:41;21.10;62.70
10270;DHT22;70826;50.930;5.334;2024-01-27T13:48:10;21.20;62.70
10270;DHT22;70826;50.930;5.334;2024-01-27T13:50:38;21.20;62.70
10270;DHT22;70826;50.930;5.334;2024-01-27T13:53:04;21.20;62.70
10270;DHT22;70826;50.930;5.334;2024-01-27T13:55:33;21.30;62.70
10270;DHT22;70826;50.930;5.334;2024-01-27T13:57:59;21.20;62.70
10270;DHT22;70826;50.930;5.334;2024-01-27T14:00:31;21.30;62.70
10270;DHT22;70826;50.930;5.334;2024-01-27T14:03:03;21.30;62.70
10270;DHT22;70826;50.930;5.334;2024-01-27T14:05:30;21.30;62.70
10270;DHT22;70826;50.930;5.334;2024-01-27T14:07:56;21.40;62.70
10270;DHT22;70826;50.930;5.334;2024-01-27T14:10:24;21.40;62.60
10270;DHT22;70826;50.930;5.334;2024-01-27T14:12:52;21.40;62.30
10270;DHT22;70826;50.930;5.334;2024-01-27T14:15:18;21.50;62.10
10270;DHT22;70826;50.930;5.334;2024-01-27T14:17:44;21.50;61.90
10270;DHT22;70826;50.930;5.334;2024-01-27T14:20:11;21.50;61.70
10270;DHT22;70826;50.930;5.334;2024-01-27T14:22:40;21.40;61.60
10270;DHT22;70826;50.930;5.334;2024-01-27T14:25:08;21.40;61.50
10270;DHT22;70826;50.930;5.334;2024-01-27T14:27:35;21.40;61.40
10270;DHT22;70826;50.930;5.334;2024-01-27T14:30:03;21.40;61.30
10270;DHT22;70826;50.930;5.334;2024-01-27T14:32:29;21.30;61.10
10270;DHT22;70826;50.930;5.334;2024-01-27T14:34:57;21.30;61.10
10270;DHT22;70826;50.930;5.334;2024-01-27T14:37:25;21.30;61.00
10270;DHT22;70826;50.930;5.334;2024-01-27T14:39:53;21.20;60.90
10270;DHT22;70826;50.930;5.334;2024-01-27T14:42:23;21.20;60.80
10270;DHT22;70826;50.930;5.334;2024-01-27T14:44:52;21.20;60.80
10270;DHT22;70826;50.930;5.334;2024-01-27T14:47:20;21.10;60.70
10270;DHT22;70826;50.930;5.334;2024-01-27T14:49:49;21.10;60.70
10270;DHT22;70826;50.930;5.334;2024-01-27T14:52:14;21.10;60.70
10270;DHT22;70826;50.930;5.334;2024-01-27T14:54:45;21.00;60.60
10270;DHT22;70826;50.930;5.334;2024-01-27T14:57:15;20.90;60.60
10270;DHT22;70826;50.930;5.334;2024-01-27T14:59:43;20.90;60.60
10270;DHT22;70826;50.930;5.334;2024-01-27T15:02:14;20.90;60.70
10270;DHT22;70826;50.930;5.334;2024-01-27T15:04:39;20.90;60.70
10270;DHT22;70826;50.930;5.334;2024-01-27T15:07:08;20.80;60.70
10270;DHT22;70826;50.930;5.334;2024-01-27T15:09:41;20.80;60.70
10270;DHT22;70826;50.930;5.334;2024-01-27T15:12:11;20.70;60.70
10270;DHT22;70826;50.930;5.334;2024-01-27T15:14:39;20.70;60.70
10270;DHT22;70826;50.930;5.334;2024-01-27T15:17:09;20.60;60.60
10270;DHT22;70826;50.930;5.334;2024-01-27T15:19:34;20.70;60.70
10270;DHT22;70826;50.930;5.334;2024-01-27T15:22:05;20.60;60.60
10270;DHT22;70826;50.930;5.334;2024-01-27T15:24:30;20.60;60.70
10270;DHT22;70826;50.930;5.334;2024-01-27T15:27:01;20.60;61.30
10270;DHT22;70826;50.930;5.334;2024-01-27T15:29:28;20.60;60.70
10270;DHT22;70826;50.930;5.334;2024-01-27T15:31:59;20.50;60.60
10270;DHT22;70826;50.930;5.334;2024-01-27T15:34:24;20.50;60.60
10270;DHT22;70826;50.930;5.334;2024-01-27T15:36:50;20.50;60.70
10270;DHT22;70826;50.930;5.334;2024-01-27T15:39:20;20.50;60.70